sensor_id;sensor_type;location;lat;lon;timestamp;P1;durP1;ratioP1;P2;durP2;ratioP2
19402;SDS011;9837;48.888;8.998;2022-11-30T04:03:01;53.57;;;24.27;;
19402;SDS011;9837;48.888;8.998;2022-11-30T04:05:27;53.03;;;24.17;;
19402;SDS011;9837;48.888;8.998;2022-11-30T04:07:55;46.50;;;22.13;;
19402;SDS011;9837;48.888;8.998;2022-11-30T04:10:21;43.47;;;22.93;;
19402;SDS011;9837;48.888;8.998;2022-11-30T04:12:54;47.30;;;22.87;;
19402;SDS011;9837;48.888;8.998;2022-11-30T04:15:20;39.23;;;21.40;;
19402;SDS011;9837;48.888;8.998;2022-11-30T04:17:46;47.43;;;22.77;;
19402;SDS011;9837;48.888;8.998;2022-11-30T04:20:12;49.33;;;22.80;;
19402;SDS011;9837;48.888;8.998;2022-11-30T04:22:38;42.63;;;21.73;;
19402;SDS011;9837;48.888;8.998;2022-11-30T04:25:04;39.47;;;21.80;;
19402;SDS011;9837;48.888;8.998;2022-11-30T04:27:30;48.53;;;21.83;;
19402;SDS011;9837;48.888;8.998;2022-11-30T04:29:56;45.73;;;21.00;;
19402;SDS011;9837;48.888;8.998;2022-11-30T04:32:22;43.53;;;21.53;;
19402;SDS011;9837;48.888;8.998;2022-11-30T04:34:48;45.33;;;21.77;;
19402;SDS011;9837;48.888;8.998;2022-11-30T04:37:14;42.97;;;21.50;;
19402;SDS011;9837;48.888;8.998;2022-11-30T04:39:40;41.77;;;21.37;;
19402;SDS011;9837;48.888;8.998;2022-11-30T04:42:06;49.50;;;22.57;;
19402;SDS011;9837;48.888;8.998;2022-11-30T04:44:33;39.03;;;20.97;;
19402;SDS011;9837;48.888;8.998;2022-11-30T04:46:59;43.63;;;21.67;;
19402;SDS011;9837;48.888;8.998;2022-11-30T04:49:25;41.53;;;20.83;;
19402;SDS011;9837;48.888;8.998;2022-11-30T04:51:50;42.33;;;20.07;;
19402;SDS011;9837;48.888;8.998;2022-11-30T04:54:16;36.97;;;21.17;;
19402;SDS011;9837;48.888;8.998;2022-11-30T04:56:42;38.43;;;20.70;;
19402;SDS011;9837;48.888;8.998;2022-11-30T04:59:08;33.73;;;18.93;;
19402;SDS011;9837;48.888;8.998;2022-11-30T05:01:34;38.43;;;20.10;;
19402;SDS011;9837;48.888;8.998;2022-11-30T05:04:00;36.37;;;20.53;;
19402;SDS011;9837;48.888;8.998;2022-11-30T05:06:26;43.63;;;20.83;;
19402;SDS011;9837;48.888;8.998;2022-11-30T05:08:52;40.80;;;21.97;;
19402;SDS011;9837;48.888;8.998;2022-11-30T05:11:18;42.23;;;22.07;;
19402;SDS011;9837;48.888;8.998;2022-11-30T05:13:44;41.57;;;22.67;;
19402;SDS011;9837;48.888;8.998;2022-11-30T05:16:10;41.83;;;20.90;;
19402;SDS011;9837;48.888;8.998;2022-11-30T05:18:36;41.70;;;19.57;;
19402;SDS011;9837;48.888;8.998;2022-11-30T05:21:04;41.87;;;21.07;;
19402;SDS011;9837;48.888;8.998;2022-11-30T05:23:30;41.53;;;19.93;;
19402;SDS011;9837;48.888;8.998;2022-11-30T05:25:56;41.97;;;19.87;;
19402;SDS011;9837;48.888;8.998;2022-11-30T05:28:22;34.30;;;19.47;;
19402;SDS011;9837;48.888;8.998;2022-11-30T05:30:48;42.73;;;19.50;;
19402;SDS011;9837;48.888;8.998;2022-11-30T05:33:14;40.80;;;20.60;;
19402;SDS011;9837;48.888;8.998;2022-11-30T05:35:40;35.67;;;19.57;;
19402;SDS011;9837;48.888;8.998;2022-11-30T05:38:06;35.87;;;18.47;;
19402;SDS011;9837;48.888;8.998;2022-11-30T05:40:32;45.23;;;19.67;;
19402;SDS011;9837;48.888;8.998;2022-11-30T05:42:58;38.73;;;20.43;;
19402;SDS011;9837;48.888;8.998;2022-11-30T05:45:25;43.67;;;21.13;;
19402;SDS011;9837;48.888;8.998;2022-11-30T05:47:51;46.10;;;19.87;;
19402;SDS011;9837;48.888;8.998;2022-11-30T05:50:17;46.03;;;19.90;;
19402;SDS011;9837;48.888;8.998;2022-11-30T05:52:43;46.43;;;19.67;;
19402;SDS011;9837;48.888;8.998;2022-11-30T05:55:09;40.83;;;18.03;;
19402;SDS011;9837;48.888;8.998;2022-11-30T05:57:35;38.73;;;19.87;;
19402;SDS011;9837;48.888;8.998;2022-11-30T06:00:05;46.77;;;19.53;;
19402;SDS011;9837;48.888;8.998;2022-11-30T06:02:32;35.67;;;17.70;;
19402;SDS011;9837;48.888;8.998;2022-11-30T06:04:58;50.37;;;19.07;;
19402;SDS011;9837;48.888;8.998;2022-11-30T06:07:24;87.23;;;20.07;;
19402;SDS011;9837;48.888;8.998;2022-11-30T06:09:50;55.00;;;19.77;;
19402;SDS011;9837;48.888;8.998;2022-11-30T06:12:16;31.77;;;18.20;;
19402;SDS011;9837;48.888;8.998;2022-11-30T06:14:42;43.53;;;17.77;;
19402;SDS011;9837;48.888;8.998;2022-11-30T06:17:07;40.53;;;17.30;;
19402;SDS011;9837;48.888;8.998;2022-11-30T06:19:33;36.90;;;18.17;;
19402;SDS011;9837;48.888;8.998;2022-11-30T06:21:59;32.80;;;17.53;;
19402;SDS011;9837;48.888;8.998;2022-11-30T06:24:25;34.43;;;17.00;;
19402;SDS011;9837;48.888;8.998;2022-11-30T06:26:51;37.00;;;17.37;;
19402;SDS011;9837;48.888;8.998;2022-11-30T06:29:17;34.27;;;16.83;;
19402;SDS011;9837;48.888;8.998;2022-11-30T06:31:42;38.67;;;16.57;;
19402;SDS011;9837;48.888;8.998;2022-11-30T06:34:08;29.57;;;16.30;;
19402;SDS011;9837;48.888;8.998;2022-11-30T06:36:35;36.80;;;17.07;;
19402;SDS011;9837;48.888;8.998;2022-11-30T06:39:02;29.47;;;16.83;;
19402;SDS011;9837;48.888;8.998;2022-11-30T06:41:28;43.73;;;19.00;;
19402;SDS011;9837;48.888;8.998;2022-11-30T06:43:54;31.77;;;17.47;;
19402;SDS011;9837;48.888;8.998;2022-11-30T06:46:19;38.60;;;17.50;;
19402;SDS011;9837;48.888;8.998;2022-11-30T06:48:47;48.37;;;18.00;;
19402;SDS011;9837;48.888;8.998;2022-11-30T06:51:16;112.03;;;21.90;;
19402;SDS011;9837;48.888;8.998;2022-11-30T06:53:42;75.33;;;19.67;;
19402;SDS011;9837;48.888;8.998;2022-11-30T06:56:08;43.43;;;18.70;;
19402;SDS011;9837;48.888;8.998;2022-11-30T06:58:35;54.77;;;18.87;;
19402;SDS011;9837;48.888;8.998;2022-11-30T07:01:05;50.57;;;18.57;;
19402;SDS011;9837;48.888;8.998;2022-11-30T07:03:32;40.23;;;18.70;;
19402;SDS011;9837;48.888;8.998;2022-11-30T07:06:04;48.70;;;19.13;;
19402;SDS011;9837;48.888;8.998;2022-11-30T07:08:32;47.63;;;19.47;;
19402;SDS011;9837;48.888;8.998;2022-11-30T07:10:58;70.50;;;20.90;;
19402;SDS011;9837;48.888;8.998;2022-11-30T07:13:24;87.13;;;20.67;;
19402;SDS011;9837;48.888;8.998;2022-11-30T07:15:50;116.47;;;23.33;;
19402;SDS011;9837;48.888;8.998;2022-11-30T07:18:15;38.37;;;18.83;;
19402;SDS011;9837;48.888;8.998;2022-11-30T07:20:41;62.50;;;20.30;;
19402;SDS011;9837;48.888;8.998;2022-11-30T07:23:07;36.97;;;17.87;;
19402;SDS011;9837;48.888;8.998;2022-11-30T07:25:52;107.83;;;20.57;;
19402;SDS011;9837;48.888;8.998;2022-11-30T07:28:31;34.70;;;18.50;;
19402;SDS011;9837;48.888;8.998;2022-11-30T07:31:01;37.00;;;17.07;;
19402;SDS011;9837;48.888;8.998;2022-11-30T07:33:37;35.07;;;18.33;;
19402;SDS011;9837;48.888;8.998;2022-11-30T07:36:03;41.17;;;19.73;;
19402;SDS011;9837;48.888;8.998;2022-11-30T07:38:28;40.40;;;17.77;;
19402;SDS011;9837;48.888;8.998;2022-11-30T07:40:56;39.50;;;18.43;;
19402;SDS011;9837;48.888;8.998;2022-11-30T07:43:22;34.17;;;18.03;;
19402;SDS011;9837;48.888;8.998;2022-11-30T07:45:51;38.63;;;17.50;;
19402;SDS011;9837;48.888;8.998;2022-11-30T07:48:17;33.43;;;18.73;;
19402;SDS011;9837;48.888;8.998;2022-11-30T07:50:44;32.47;;;17.20;;
19402;SDS011;9837;48.888;8.998;2022-11-30T07:53:10;32.07;;;18.33;;
19402;SDS011;9837;48.888;8.998;2022-11-30T07:55:36;43.13;;;21.67;;
19402;SDS011;9837;48.888;8.998;2022-11-30T07:58:02;45.40;;;21.77;;
19402;SDS011;9837;48.888;8.998;2022-11-30T08:00:28;38.13;;;19.43;;
19402;SDS011;9837;48.888;8.998;2022-11-30T08:02:54;28.37;;;15.83;;
19402;SDS011;9837;48.888;8.998;2022-11-30T08:05:20;33.90;;;16.47;;
19402;SDS011;9837;48.888;8.998;2022-11-30T08:07:50;32.63;;;16.37;;
19402;SDS011;9837;48.888;8.998;2022-11-30T08:10:17;32.13;;;17.13;;
19402;SDS011;9837;48.888;8.998;2022-11-30T08:12:46;30.80;;;15.83;;
19402;SDS011;9837;48.888;8.998;2022-11-30T08:15:12;30.57;;;16.33;;
19402;SDS011;9837;48.888;8.998;2022-11-30T08:17:38;27.23;;;15.83;;
19402;SDS011;9837;48.888;8.998;2022-11-30T08:20:05;25.80;;;15.27;;
19402;SDS011;9837;48.888;8.998;2022-11-30T08:22:32;31.60;;;17.47;;
19402;SDS011;9837;48.888;8.998;2022-11-30T08:24:58;31.80;;;17.33;;
19402;SDS011;9837;48.888;8.998;2022-11-30T08:27:24;26.43;;;15.33;;
19402;SDS011;9837;48.888;8.998;2022-11-30T08:29:50;28.70;;;16.73;;
19402;SDS011;9837;48.888;8.998;2022-11-30T08:32:16;37.07;;;18.80;;
19402;SDS011;9837;48.888;8.998;2022-11-30T08:34:42;34.50;;;17.27;;
19402;SDS011;9837;48.888;8.998;2022-11-30T08:37:07;36.37;;;19.13;;
19402;SDS011;9837;48.888;8.998;2022-11-30T08:39:33;36.30;;;17.13;;
19402;SDS011;9837;48.888;8.998;2022-11-30T08:41:59;30.90;;;17.30;;
19402;SDS011;9837;48.888;8.998;2022-11-30T08:44:28;34.10;;;16.97;;
19402;SDS011;9837;48.888;8.998;2022-11-30T08:46:54;38.10;;;17.03;;
19402;SDS011;9837;48.888;8.998;2022-11-30T08:49:21;42.23;;;18.20;;
19402;SDS011;9837;48.888;8.998;2022-11-30T08:51:47;29.53;;;17.10;;
19402;SDS011;9837;48.888;8.998;2022-11-30T08:54:14;35.00;;;17.77;;
19402;SDS011;9837;48.888;8.998;2022-11-30T08:56:40;36.73;;;17.87;;
19402;SDS011;9837;48.888;8.998;2022-11-30T08:59:06;35.73;;;18.67;;
19402;SDS011;9837;48.888;8.998;2022-11-30T09:01:32;33.93;;;18.50;;
19402;SDS011;9837;48.888;8.998;2022-11-30T09:03:58;38.00;;;17.00;;
19402;SDS011;9837;48.888;8.998;2022-11-30T09:06:27;34.30;;;18.83;;
19402;SDS011;9837;48.888;8.998;2022-11-30T09:08:54;43.87;;;19.20;;
19402;SDS011;9837;48.888;8.998;2022-11-30T09:11:29;34.33;;;18.30;;
19402;SDS011;9837;48.888;8.998;2022-11-30T09:13:58;31.47;;;16.77;;
19402;SDS011;9837;48.888;8.998;2022-11-30T09:16:25;29.87;;;16.43;;
19402;SDS011;9837;48.888;8.998;2022-11-30T09:18:51;30.50;;;16.83;;
19402;SDS011;9837;48.888;8.998;2022-11-30T09:21:17;34.27;;;17.43;;
19402;SDS011;9837;48.888;8.998;2022-11-30T09:23:45;31.83;;;17.50;;
19402;SDS011;9837;48.888;8.998;2022-11-30T09:26:13;32.77;;;17.27;;
19402;SDS011;9837;48.888;8.998;2022-11-30T09:28:41;28.60;;;15.80;;
19402;SDS011;9837;48.888;8.998;2022-11-30T09:31:12;38.83;;;18.90;;
19402;SDS011;9837;48.888;8.998;2022-11-30T09:33:39;32.80;;;16.80;;
19402;SDS011;9837;48.888;8.998;2022-11-30T09:36:06;34.27;;;17.63;;
19402;SDS011;9837;48.888;8.998;2022-11-30T09:38:33;27.13;;;16.53;;
19402;SDS011;9837;48.888;8.998;2022-11-30T09:41:02;24.37;;;15.70;;
19402;SDS011;9837;48.888;8.998;2022-11-30T09:43:43;27.03;;;15.77;;
19402;SDS011;9837;48.888;8.998;2022-11-30T09:46:17;27.77;;;16.20;;
19402;SDS011;9837;48.888;8.998;2022-11-30T09:49:12;29.70;;;15.90;;
19402;SDS011;9837;48.888;8.998;2022-11-30T09:51:54;24.97;;;16.13;;
19402;SDS011;9837;48.888;8.998;2022-11-30T09:54:30;27.33;;;15.77;;
19402;SDS011;9837;48.888;8.998;2022-11-30T09:57:11;30.90;;;17.60;;
19402;SDS011;9837;48.888;8.998;2022-11-30T09:59:39;28.37;;;15.57;;
19402;SDS011;9837;48.888;8.998;2022-11-30T10:02:32;31.90;;;16.87;;
19402;SDS011;9837;48.888;8.998;2022-11-30T10:05:14;26.23;;;15.40;;
19402;SDS011;9837;48.888;8.998;2022-11-30T10:08:06;29.00;;;14.37;;
19402;SDS011;9837;48.888;8.998;2022-11-30T10:16:50;25.23;;;14.03;;
19402;SDS011;9837;48.888;8.998;2022-11-30T10:28:15;21.90;;;14.27;;
19402;SDS011;9837;48.888;8.998;2022-11-30T10:30:59;26.70;;;15.00;;
19402;SDS011;9837;48.888;8.998;2022-11-30T10:33:28;22.47;;;14.30;;
19402;SDS011;9837;48.888;8.998;2022-11-30T10:36:01;24.20;;;15.03;;
19402;SDS011;9837;48.888;8.998;2022-11-30T10:38:42;27.37;;;14.20;;
19402;SDS011;9837;48.888;8.998;2022-11-30T10:41:12;24.77;;;14.60;;
19402;SDS011;9837;48.888;8.998;2022-11-30T10:43:55;25.67;;;14.27;;
19402;SDS011;9837;48.888;8.998;2022-11-30T10:47:03;22.27;;;13.77;;
19402;SDS011;9837;48.888;8.998;2022-11-30T10:49:36;21.97;;;13.80;;
19402;SDS011;9837;48.888;8.998;2022-11-30T10:52:06;23.20;;;13.67;;
19402;SDS011;9837;48.888;8.998;2022-11-30T10:54:33;23.43;;;14.20;;
19402;SDS011;9837;48.888;8.998;2022-11-30T10:57:01;26.73;;;14.47;;
19402;SDS011;9837;48.888;8.998;2022-11-30T10:59:48;25.80;;;14.97;;
19402;SDS011;9837;48.888;8.998;2022-11-30T11:05:14;30.23;;;16.43;;
19402;SDS011;9837;48.888;8.998;2022-11-30T11:07:50;27.93;;;14.97;;
19402;SDS011;9837;48.888;8.998;2022-11-30T11:10:28;27.20;;;16.07;;
19402;SDS011;9837;48.888;8.998;2022-11-30T11:13:13;25.83;;;16.13;;
19402;SDS011;9837;48.888;8.998;2022-11-30T11:15:59;23.97;;;15.73;;
19402;SDS011;9837;48.888;8.998;2022-11-30T11:18:30;28.87;;;15.63;;
19402;SDS011;9837;48.888;8.998;2022-11-30T11:23:41;26.63;;;15.67;;
19402;SDS011;9837;48.888;8.998;2022-11-30T11:26:18;28.03;;;16.63;;
19402;SDS011;9837;48.888;8.998;2022-11-30T11:28:49;26.13;;;15.43;;
19402;SDS011;9837;48.888;8.998;2022-11-30T11:31:33;26.13;;;16.37;;
19402;SDS011;9837;48.888;8.998;2022-11-30T11:34:30;31.00;;;16.70;;
19402;SDS011;9837;48.888;8.998;2022-11-30T11:39:49;32.50;;;16.10;;
19402;SDS011;9837;48.888;8.998;2022-11-30T11:42:20;29.70;;;16.13;;
19402;SDS011;9837;48.888;8.998;2022-11-30T11:44:50;30.80;;;16.73;;
19402;SDS011;9837;48.888;8.998;2022-11-30T11:47:27;26.93;;;15.83;;
19402;SDS011;9837;48.888;8.998;2022-11-30T11:50:26;26.67;;;16.30;;
19402;SDS011;9837;48.888;8.998;2022-11-30T11:53:20;33.67;;;18.77;;
19402;SDS011;9837;48.888;8.998;2022-11-30T11:55:53;28.93;;;16.13;;
19402;SDS011;9837;48.888;8.998;2022-11-30T11:58:32;30.83;;;17.53;;
19402;SDS011;9837;48.888;8.998;2022-11-30T12:01:15;27.53;;;15.30;;
19402;SDS011;9837;48.888;8.998;2022-11-30T12:03:59;28.47;;;16.13;;
19402;SDS011;9837;48.888;8.998;2022-11-30T12:06:39;23.00;;;13.20;;
19402;SDS011;9837;48.888;8.998;2022-11-30T12:09:13;21.00;;;13.70;;
19402;SDS011;9837;48.888;8.998;2022-11-30T12:11:46;23.10;;;14.83;;
19402;SDS011;9837;48.888;8.998;2022-11-30T12:14:17;22.23;;;13.63;;
19402;SDS011;9837;48.888;8.998;2022-11-30T12:19:31;22.47;;;12.60;;
19402;SDS011;9837;48.888;8.998;2022-11-30T12:29:42;19.70;;;10.17;;
19402;SDS011;9837;48.888;8.998;2022-11-30T12:45:41;17.07;;;10.53;;
19402;SDS011;9837;48.888;8.998;2022-11-30T12:53:54;27.13;;;13.97;;
19402;SDS011;9837;48.888;8.998;2022-11-30T12:59:13;24.17;;;14.33;;
19402;SDS011;9837;48.888;8.998;2022-11-30T13:04:46;27.43;;;14.30;;
19402;SDS011;9837;48.888;8.998;2022-11-30T13:07:22;23.03;;;13.50;;
19402;SDS011;9837;48.888;8.998;2022-11-30T13:13:15;23.17;;;14.27;;
19402;SDS011;9837;48.888;8.998;2022-11-30T13:15:45;21.03;;;13.53;;
19402;SDS011;9837;48.888;8.998;2022-11-30T13:18:16;26.00;;;14.83;;
19402;SDS011;9837;48.888;8.998;2022-11-30T13:20:45;21.27;;;13.63;;
19402;SDS011;9837;48.888;8.998;2022-11-30T13:25:53;21.20;;;13.03;;
19402;SDS011;9837;48.888;8.998;2022-11-30T13:31:06;28.33;;;14.87;;
19402;SDS011;9837;48.888;8.998;2022-11-30T13:36:51;23.60;;;13.07;;
19402;SDS011;9837;48.888;8.998;2022-11-30T13:41:46;21.93;;;13.03;;
19402;SDS011;9837;48.888;8.998;2022-11-30T13:44:20;20.30;;;12.90;;
19402;SDS011;9837;48.888;8.998;2022-11-30T13:46:53;21.13;;;13.13;;
19402;SDS011;9837;48.888;8.998;2022-11-30T13:51:46;21.83;;;13.80;;
19402;SDS011;9837;48.888;8.998;2022-11-30T13:57:18;26.47;;;14.30;;
19402;SDS011;9837;48.888;8.998;2022-11-30T14:00:00;21.23;;;13.73;;
19402;SDS011;9837;48.888;8.998;2022-11-30T14:07:42;26.27;;;14.33;;
19402;SDS011;9837;48.888;8.998;2022-11-30T14:10:31;26.33;;;15.70;;
19402;SDS011;9837;48.888;8.998;2022-11-30T14:18:08;28.37;;;17.40;;
19402;SDS011;9837;48.888;8.998;2022-11-30T14:23:17;29.77;;;17.33;;
19402;SDS011;9837;48.888;8.998;2022-11-30T14:26:18;27.70;;;16.47;;
19402;SDS011;9837;48.888;8.998;2022-11-30T14:31:33;27.27;;;15.43;;
19402;SDS011;9837;48.888;8.998;2022-11-30T14:34:27;30.13;;;16.37;;
19402;SDS011;9837;48.888;8.998;2022-11-30T14:37:22;26.80;;;17.03;;
19402;SDS011;9837;48.888;8.998;2022-11-30T14:39:48;27.03;;;16.27;;
19402;SDS011;9837;48.888;8.998;2022-11-30T14:42:19;25.10;;;15.57;;
19402;SDS011;9837;48.888;8.998;2022-11-30T14:44:50;28.97;;;17.50;;
19402;SDS011;9837;48.888;8.998;2022-11-30T14:49:56;32.23;;;18.30;;
19402;SDS011;9837;48.888;8.998;2022-11-30T14:57:39;33.27;;;18.20;;
19402;SDS011;9837;48.888;8.998;2022-11-30T15:00:13;38.50;;;19.40;;
19402;SDS011;9837;48.888;8.998;2022-11-30T15:02:41;34.57;;;18.70;;
19402;SDS011;9837;48.888;8.998;2022-11-30T15:05:11;30.07;;;18.10;;
19402;SDS011;9837;48.888;8.998;2022-11-30T15:07:40;33.07;;;19.10;;
19402;SDS011;9837;48.888;8.998;2022-11-30T15:10:08;39.50;;;19.27;;
19402;SDS011;9837;48.888;8.998;2022-11-30T15:12:38;38.37;;;20.37;;
19402;SDS011;9837;48.888;8.998;2022-11-30T15:15:16;35.40;;;20.10;;
19402;SDS011;9837;48.888;8.998;2022-11-30T15:20:24;31.90;;;18.33;;
19402;SDS011;9837;48.888;8.998;2022-11-30T15:22:56;35.33;;;19.00;;
19402;SDS011;9837;48.888;8.998;2022-11-30T15:25:24;29.93;;;17.83;;
19402;SDS011;9837;48.888;8.998;2022-11-30T15:27:57;29.00;;;17.40;;
19402;SDS011;9837;48.888;8.998;2022-11-30T15:30:23;32.77;;;19.03;;
19402;SDS011;9837;48.888;8.998;2022-11-30T15:32:49;36.80;;;17.70;;
19402;SDS011;9837;48.888;8.998;2022-11-30T15:35:20;37.87;;;21.60;;
19402;SDS011;9837;48.888;8.998;2022-11-30T15:37:48;34.13;;;19.27;;
19402;SDS011;9837;48.888;8.998;2022-11-30T15:40:15;34.70;;;18.20;;
19402;SDS011;9837;48.888;8.998;2022-11-30T15:42:52;29.67;;;18.00;;
19402;SDS011;9837;48.888;8.998;2022-11-30T15:45:36;32.00;;;18.70;;
19402;SDS011;9837;48.888;8.998;2022-11-30T15:48:31;31.40;;;19.03;;
19402;SDS011;9837;48.888;8.998;2022-11-30T15:51:00;36.90;;;18.57;;
19402;SDS011;9837;48.888;8.998;2022-11-30T15:53:48;36.77;;;19.47;;
19402;SDS011;9837;48.888;8.998;2022-11-30T15:56:24;33.93;;;18.77;;
19402;SDS011;9837;48.888;8.998;2022-11-30T16:01:57;31.70;;;18.27;;
19402;SDS011;9837;48.888;8.998;2022-11-30T16:07:28;36.07;;;19.87;;
19402;SDS011;9837;48.888;8.998;2022-11-30T16:10:05;37.27;;;20.40;;
19402;SDS011;9837;48.888;8.998;2022-11-30T16:12:38;36.37;;;19.63;;
19402;SDS011;9837;48.888;8.998;2022-11-30T16:15:15;33.43;;;19.13;;
19402;SDS011;9837;48.888;8.998;2022-11-30T16:17:55;41.77;;;20.70;;
19402;SDS011;9837;48.888;8.998;2022-11-30T16:20:24;40.90;;;21.77;;
19402;SDS011;9837;48.888;8.998;2022-11-30T16:22:50;38.13;;;20.37;;
19402;SDS011;9837;48.888;8.998;2022-11-30T16:25:17;38.77;;;20.73;;
19402;SDS011;9837;48.888;8.998;2022-11-30T16:27:45;39.03;;;19.27;;
19402;SDS011;9837;48.888;8.998;2022-11-30T16:30:30;39.20;;;20.63;;
19402;SDS011;9837;48.888;8.998;2022-11-30T16:32:56;35.77;;;19.03;;
19402;SDS011;9837;48.888;8.998;2022-11-30T16:35:23;37.33;;;18.77;;
19402;SDS011;9837;48.888;8.998;2022-11-30T16:37:54;33.87;;;18.37;;
19402;SDS011;9837;48.888;8.998;2022-11-30T16:40:20;37.13;;;20.30;;
19402;SDS011;9837;48.888;8.998;2022-11-30T16:42:49;39.20;;;19.00;;
19402;SDS011;9837;48.888;8.998;2022-11-30T16:45:19;37.13;;;20.13;;
19402;SDS011;9837;48.888;8.998;2022-11-30T16:47:48;34.13;;;17.63;;
19402;SDS011;9837;48.888;8.998;2022-11-30T16:50:14;36.67;;;19.27;;
19402;SDS011;9837;48.888;8.998;2022-11-30T16:52:40;38.80;;;18.90;;
19402;SDS011;9837;48.888;8.998;2022-11-30T16:55:14;33.07;;;17.13;;
19402;SDS011;9837;48.888;8.998;2022-11-30T16:57:42;37.53;;;20.37;;
19402;SDS011;9837;48.888;8.998;2022-11-30T17:00:08;43.70;;;20.37;;
19402;SDS011;9837;48.888;8.998;2022-11-30T17:02:37;40.50;;;19.70;;
19402;SDS011;9837;48.888;8.998;2022-11-30T17:05:12;42.17;;;19.03;;
19402;SDS011;9837;48.888;8.998;2022-11-30T17:07:39;39.90;;;19.83;;
19402;SDS011;9837;48.888;8.998;2022-11-30T17:10:05;34.87;;;17.27;;
19402;SDS011;9837;48.888;8.998;2022-11-30T17:12:31;33.50;;;17.60;;
19402;SDS011;9837;48.888;8.998;2022-11-30T17:14:58;31.63;;;17.50;;
19402;SDS011;9837;48.888;8.998;2022-11-30T17:17:24;35.50;;;17.17;;
19402;SDS011;9837;48.888;8.998;2022-11-30T17:19:50;31.17;;;16.43;;
19402;SDS011;9837;48.888;8.998;2022-11-30T17:22:16;32.30;;;18.40;;
19402;SDS011;9837;48.888;8.998;2022-11-30T17:24:42;58.97;;;26.57;;
19402;SDS011;9837;48.888;8.998;2022-11-30T17:27:08;46.30;;;21.60;;
19402;SDS011;9837;48.888;8.998;2022-11-30T17:29:36;28.60;;;15.20;;
19402;SDS011;9837;48.888;8.998;2022-11-30T17:32:02;24.53;;;13.93;;
19402;SDS011;9837;48.888;8.998;2022-11-30T17:34:28;22.87;;;12.70;;
19402;SDS011;9837;48.888;8.998;2022-11-30T17:36:54;22.33;;;13.00;;
19402;SDS011;9837;48.888;8.998;2022-11-30T17:39:21;22.23;;;12.63;;
19402;SDS011;9837;48.888;8.998;2022-11-30T17:41:47;24.50;;;13.60;;
19402;SDS011;9837;48.888;8.998;2022-11-30T17:44:13;26.57;;;15.70;;
19402;SDS011;9837;48.888;8.998;2022-11-30T17:46:39;23.30;;;13.90;;
19402;SDS011;9837;48.888;8.998;2022-11-30T17:49:05;24.17;;;12.80;;
19402;SDS011;9837;48.888;8.998;2022-11-30T17:51:31;22.53;;;12.30;;
19402;SDS011;9837;48.888;8.998;2022-11-30T17:53:57;20.37;;;11.83;;
19402;SDS011;9837;48.888;8.998;2022-11-30T17:56:23;18.07;;;11.20;;
19402;SDS011;9837;48.888;8.998;2022-11-30T17:58:50;20.20;;;11.10;;
19402;SDS011;9837;48.888;8.998;2022-11-30T18:01:20;22.27;;;12.03;;
19402;SDS011;9837;48.888;8.998;2022-11-30T18:03:48;15.80;;;10.20;;
19402;SDS011;9837;48.888;8.998;2022-11-30T18:06:14;17.37;;;10.63;;
19402;SDS011;9837;48.888;8.998;2022-11-30T18:08:41;17.77;;;10.27;;
19402;SDS011;9837;48.888;8.998;2022-11-30T18:11:17;20.97;;;11.30;;
19402;SDS011;9837;48.888;8.998;2022-11-30T18:13:44;18.20;;;10.93;;
19402;SDS011;9837;48.888;8.998;2022-11-30T18:16:16;17.17;;;10.97;;
19402;SDS011;9837;48.888;8.998;2022-11-30T18:18:43;17.27;;;10.50;;
19402;SDS011;9837;48.888;8.998;2022-11-30T18:21:10;22.77;;;11.33;;
19402;SDS011;9837;48.888;8.998;2022-11-30T18:23:37;14.80;;;8.70;;
19402;SDS011;9837;48.888;8.998;2022-11-30T18:26:04;14.47;;;8.53;;
19402;SDS011;9837;48.888;8.998;2022-11-30T18:28:31;14.53;;;8.57;;
19402;SDS011;9837;48.888;8.998;2022-11-30T18:30:57;14.53;;;8.50;;
19402;SDS011;9837;48.888;8.998;2022-11-30T18:33:23;14.50;;;8.67;;
19402;SDS011;9837;48.888;8.998;2022-11-30T18:35:49;16.50;;;8.73;;
19402;SDS011;9837;48.888;8.998;2022-11-30T18:38:15;15.73;;;9.30;;
19402;SDS011;9837;48.888;8.998;2022-11-30T18:40:42;21.23;;;11.03;;
19402;SDS011;9837;48.888;8.998;2022-11-30T18:43:08;21.53;;;10.57;;
19402;SDS011;9837;48.888;8.998;2022-11-30T18:45:34;16.83;;;9.77;;
19402;SDS011;9837;48.888;8.998;2022-11-30T18:48:02;19.30;;;10.80;;
19402;SDS011;9837;48.888;8.998;2022-11-30T18:50:28;21.70;;;10.07;;
19402;SDS011;9837;48.888;8.998;2022-11-30T18:52:54;15.90;;;9.83;;
19402;SDS011;9837;48.888;8.998;2022-11-30T18:55:24;19.07;;;9.77;;
19402;SDS011;9837;48.888;8.998;2022-11-30T18:57:50;14.97;;;9.07;;
19402;SDS011;9837;48.888;8.998;2022-11-30T19:00:16;17.73;;;10.63;;
19402;SDS011;9837;48.888;8.998;2022-11-30T19:02:43;20.20;;;9.80;;
19402;SDS011;9837;48.888;8.998;2022-11-30T19:05:09;20.43;;;9.30;;
19402;SDS011;9837;48.888;8.998;2022-11-30T19:07:35;19.73;;;10.00;;
19402;SDS011;9837;48.888;8.998;2022-11-30T19:10:05;22.37;;;11.07;;
19402;SDS011;9837;48.888;8.998;2022-11-30T19:12:31;19.80;;;10.40;;
19402;SDS011;9837;48.888;8.998;2022-11-30T19:14:58;17.77;;;9.93;;
19402;SDS011;9837;48.888;8.998;2022-11-30T19:17:25;20.73;;;9.87;;
19402;SDS011;9837;48.888;8.998;2022-11-30T19:19:52;20.60;;;11.13;;
19402;SDS011;9837;48.888;8.998;2022-11-30T19:22:18;18.93;;;10.10;;
19402;SDS011;9837;48.888;8.998;2022-11-30T19:24:44;18.53;;;9.97;;
19402;SDS011;9837;48.888;8.998;2022-11-30T19:27:10;19.30;;;10.37;;
19402;SDS011;9837;48.888;8.998;2022-11-30T19:29:36;19.23;;;9.60;;
19402;SDS011;9837;48.888;8.998;2022-11-30T19:32:02;21.00;;;10.73;;
19402;SDS011;9837;48.888;8.998;2022-11-30T19:34:28;17.70;;;9.20;;
19402;SDS011;9837;48.888;8.998;2022-11-30T19:36:54;17.77;;;9.83;;
19402;SDS011;9837;48.888;8.998;2022-11-30T19:39:20;19.07;;;10.83;;
19402;SDS011;9837;48.888;8.998;2022-11-30T19:41:46;18.27;;;10.03;;
19402;SDS011;9837;48.888;8.998;2022-11-30T19:44:13;20.40;;;10.50;;
19402;SDS011;9837;48.888;8.998;2022-11-30T19:46:39;20.57;;;10.73;;
19402;SDS011;9837;48.888;8.998;2022-11-30T19:49:05;19.37;;;10.40;;
19402;SDS011;9837;48.888;8.998;2022-11-30T19:51:33;22.27;;;10.57;;
19402;SDS011;9837;48.888;8.998;2022-11-30T19:53:59;20.93;;;10.87;;
19402;SDS011;9837;48.888;8.998;2022-11-30T19:56:26;19.67;;;11.00;;
19402;SDS011;9837;48.888;8.998;2022-11-30T19:58:53;18.83;;;10.27;;
19402;SDS011;9837;48.888;8.998;2022-11-30T20:01:20;20.50;;;10.50;;
19402;SDS011;9837;48.888;8.998;2022-11-30T20:03:48;20.60;;;10.57;;
19402;SDS011;9837;48.888;8.998;2022-11-30T20:06:16;20.23;;;10.53;;
19402;SDS011;9837;48.888;8.998;2022-11-30T20:08:42;20.40;;;11.00;;
19402;SDS011;9837;48.888;8.998;2022-11-30T20:11:08;16.97;;;10.03;;
19402;SDS011;9837;48.888;8.998;2022-11-30T20:13:36;23.77;;;10.93;;
19402;SDS011;9837;48.888;8.998;2022-11-30T20:16:06;23.97;;;12.07;;
19402;SDS011;9837;48.888;8.998;2022-11-30T20:18:39;22.43;;;11.03;;
19402;SDS011;9837;48.888;8.998;2022-11-30T20:23:38;24.53;;;12.93;;
19402;SDS011;9837;48.888;8.998;2022-11-30T20:29:05;29.87;;;13.47;;
19402;SDS011;9837;48.888;8.998;2022-11-30T20:31:35;22.90;;;12.13;;
19402;SDS011;9837;48.888;8.998;2022-11-30T20:34:01;30.77;;;13.30;;
19402;SDS011;9837;48.888;8.998;2022-11-30T20:36:27;29.40;;;14.17;;
19402;SDS011;9837;48.888;8.998;2022-11-30T20:38:53;24.97;;;13.30;;
19402;SDS011;9837;48.888;8.998;2022-11-30T20:41:20;27.70;;;12.97;;
19402;SDS011;9837;48.888;8.998;2022-11-30T20:43:47;25.70;;;12.90;;
19402;SDS011;9837;48.888;8.998;2022-11-30T20:46:23;23.70;;;13.17;;
19402;SDS011;9837;48.888;8.998;2022-11-30T20:48:51;24.03;;;12.47;;